createdAt,value
2022-08-26T00:01:46.534Z,7.03
2022-08-26T00:04:13.324Z,6.10
2022-08-26T00:06:42.752Z,7.53
2022-08-26T00:09:16.188Z,6.23
2022-08-26T00:11:44.427Z,7.10
2022-08-26T00:14:11.760Z,6.07
2022-08-26T00:16:41.022Z,7.87
2022-08-26T00:19:14.195Z,9.23
2022-08-26T00:21:41.444Z,9.10
2022-08-26T00:24:08.205Z,6.87
2022-08-26T00:26:35.014Z,6.93
2022-08-26T00:29:01.930Z,10.07
2022-08-26T00:31:31.178Z,6.90
2022-08-26T00:33:58.298Z,9.20
2022-08-26T00:36:25.276Z,7.67
2022-08-26T00:38:57.148Z,5.97
2022-08-26T00:41:23.852Z,5.60
2022-08-26T00:43:51.657Z,5.70
2022-08-26T00:46:26.795Z,7.10
2022-08-26T00:49:11.971Z,6.07
2022-08-26T00:51:47.670Z,5.83
2022-08-26T00:54:16.275Z,5.93
2022-08-26T00:56:52.780Z,6.07
2022-08-26T00:59:20.265Z,7.20
2022-08-26T01:01:47.559Z,7.00
2022-08-26T01:04:17.888Z,6.40
2022-08-26T01:06:45.336Z,6.63
2022-08-26T01:09:12.820Z,7.43
2022-08-26T01:11:39.953Z,7.37
2022-08-26T01:14:09.003Z,5.77
2022-08-26T01:16:36.883Z,8.97
2022-08-26T01:19:15.732Z,6.00
2022-08-26T01:22:06.416Z,8.13
2022-08-26T01:24:33.105Z,6.67
2022-08-26T01:27:06.941Z,6.50
2022-08-26T01:29:36.424Z,7.80
2022-08-26T01:32:06.052Z,7.97
2022-08-26T01:34:36.079Z,9.33
2022-08-26T01:37:15.464Z,7.33
2022-08-26T01:39:45.022Z,7.23
2022-08-26T01:42:15.011Z,7.33
2022-08-26T01:45:00.761Z,6.33
2022-08-26T01:47:30.695Z,6.60
2022-08-26T01:50:01.503Z,7.17
2022-08-26T01:52:32.671Z,7.20
2022-08-26T01:55:00.449Z,6.87
2022-08-26T01:57:27.943Z,9.83
2022-08-26T01:59:58.403Z,6.93
2022-08-26T02:02:25.743Z,6.40
2022-08-26T02:05:01.873Z,7.60
2022-08-26T02:07:30.054Z,7.53
2022-08-26T02:09:57.495Z,7.90
2022-08-26T02:12:26.054Z,6.30
2022-08-26T02:14:56.433Z,9.43
2022-08-26T02:17:33.657Z,6.23
2022-08-26T02:20:02.106Z,7.53
2022-08-26T02:22:30.598Z,7.50
2022-08-26T02:25:16.150Z,7.97
2022-08-26T02:27:42.845Z,6.70
2022-08-26T02:30:31.554Z,7.90
2022-08-26T02:33:03.660Z,7.57
2022-08-26T02:35:32.133Z,7.03
2022-08-26T02:38:00.309Z,6.40
2022-08-26T02:40:31.347Z,7.17
2022-08-26T02:42:58.389Z,6.67
2022-08-26T02:45:28.848Z,7.53
2022-08-26T02:47:58.050Z,7.70
2022-08-26T02:50:26.946Z,8.67
2022-08-26T02:52:53.793Z,8.70
2022-08-26T02:55:20.693Z,8.33
2022-08-26T02:57:51.974Z,6.63
2022-08-26T03:00:18.797Z,9.63
2022-08-26T03:02:46.082Z,5.97
2022-08-26T03:05:12.874Z,6.80
2022-08-26T03:07:39.552Z,6.17
2022-08-26T03:10:08.661Z,6.37
2022-08-26T03:12:37.005Z,8.47
2022-08-26T03:15:17.530Z,6.10
2022-08-26T03:17:49.045Z,7.93
2022-08-26T03:20:17.655Z,7.53
2022-08-26T03:22:45.009Z,6.80
2022-08-26T03:25:13.908Z,6.63
2022-08-26T03:27:43.022Z,8.40
2022-08-26T03:30:30.712Z,6.77
2022-08-26T03:32:57.612Z,8.33
2022-08-26T03:35:25.693Z,6.83
2022-08-26T03:37:53.503Z,9.57
2022-08-26T03:40:20.764Z,6.77
2022-08-26T03:42:48.183Z,7.23
2022-08-26T03:45:17.209Z,7.80
2022-08-26T03:47:44.451Z,11.00
2022-08-26T03:50:14.117Z,8.17
2022-08-26T03:52:43.889Z,7.30
2022-08-26T03:55:11.362Z,9.77
2022-08-26T03:57:38.060Z,11.50
2022-08-26T04:00:07.034Z,6.20
2022-08-26T04:02:33.868Z,9.80
2022-08-26T04:05:00.576Z,5.73
2022-08-26T04:07:27.233Z,8.07
2022-08-26T04:09:58.050Z,6.50
2022-08-26T04:12:25.950Z,9.57
2022-08-26T04:14:53.821Z,6.97
2022-08-26T04:17:25.050Z,6.30
2022-08-26T04:19:54.991Z,6.00
2022-08-26T04:22:24.194Z,6.60
2022-08-26T04:24:52.267Z,7.20
2022-08-26T04:27:19.324Z,8.07
2022-08-26T04:29:46.555Z,6.00
2022-08-26T04:32:14.845Z,8.77
2022-08-26T04:34:43.347Z,7.30
2022-08-26T04:37:11.795Z,6.70
2022-08-26T04:39:38.639Z,7.03
2022-08-26T04:42:05.953Z,7.23
2022-08-26T04:44:35.816Z,10.67
2022-08-26T04:47:02.971Z,6.87
2022-08-26T04:49:35.457Z,7.33
2022-08-26T04:52:03.249Z,6.20
2022-08-26T04:54:31.505Z,7.30
2022-08-26T04:56:58.210Z,6.33
2022-08-26T04:59:25.054Z,7.10
2022-08-26T05:01:56.207Z,5.73
2022-08-26T05:04:23.239Z,7.57
2022-08-26T05:06:50.790Z,8.17
2022-08-26T05:09:19.146Z,10.17
2022-08-26T05:11:51.826Z,5.93
2022-08-26T05:14:20.009Z,6.57
2022-08-26T05:16:47.743Z,7.23
2022-08-26T05:19:17.203Z,7.27
2022-08-26T05:21:46.214Z,8.53
2022-08-26T05:24:14.501Z,6.33
2022-08-26T05:26:41.539Z,7.70
2022-08-26T05:29:11.370Z,6.73
2022-08-26T05:31:38.035Z,7.83
2022-08-26T05:34:05.817Z,7.07
2022-08-26T05:36:34.948Z,7.93
2022-08-26T05:39:03.509Z,7.27
2022-08-26T05:41:34.289Z,6.90
2022-08-26T05:44:06.913Z,6.57
2022-08-26T05:46:35.001Z,6.87
2022-08-26T05:49:03.890Z,8.00
2022-08-26T05:51:31.141Z,10.33
2022-08-26T05:53:58.974Z,7.90
2022-08-26T05:56:27.528Z,6.57
2022-08-26T05:58:58.400Z,7.43
2022-08-26T06:01:26.939Z,7.53
2022-08-26T06:03:57.534Z,8.23
2022-08-26T06:06:41.133Z,9.30
2022-08-26T06:09:11.180Z,7.23
2022-08-26T06:11:38.864Z,7.60
2022-08-26T06:14:07.921Z,7.47
2022-08-26T06:16:38.518Z,7.43
2022-08-26T06:19:10.721Z,8.97
2022-08-26T06:21:41.077Z,8.00
2022-08-26T06:24:29.313Z,6.93
2022-08-26T06:27:01.288Z,8.90
2022-08-26T06:29:30.348Z,8.87
2022-08-26T06:31:58.071Z,8.20
2022-08-26T06:34:29.738Z,8.87
2022-08-26T06:36:59.614Z,8.50
2022-08-26T06:39:26.493Z,12.00
2022-08-26T06:41:57.378Z,12.63
2022-08-26T06:44:24.049Z,10.77
2022-08-26T06:46:51.475Z,11.80
2022-08-26T06:49:18.426Z,14.90
2022-08-26T06:51:53.923Z,11.00
2022-08-26T06:54:21.166Z,11.90
2022-08-26T06:56:48.025Z,11.33
2022-08-26T06:59:15.265Z,14.63
2022-08-26T07:01:44.843Z,14.53
2022-08-26T07:04:14.575Z,14.00
2022-08-26T07:06:47.072Z,15.20
2022-08-26T07:09:14.018Z,13.90
2022-08-26T07:11:41.724Z,11.57
2022-08-26T07:14:09.001Z,10.63
2022-08-26T07:16:35.932Z,12.40
2022-08-26T07:19:10.890Z,9.77
2022-08-26T07:21:41.490Z,10.27
2022-08-26T07:24:11.008Z,11.03
2022-08-26T07:26:38.577Z,12.43
2022-08-26T07:29:06.776Z,11.50
2022-08-26T07:31:39.489Z,12.50
2022-08-26T07:34:10.492Z,11.80
2022-08-26T07:36:37.205Z,10.93
2022-08-26T07:39:04.084Z,14.60
2022-08-26T07:41:30.934Z,10.50
2022-08-26T07:43:59.078Z,11.00
2022-08-26T07:46:27.473Z,10.07
2022-08-26T07:48:57.885Z,12.83
2022-08-26T07:51:26.607Z,14.00
2022-08-26T07:53:54.567Z,11.67
2022-08-26T07:56:23.263Z,14.37
2022-08-26T07:58:52.780Z,14.07
2022-08-26T08:01:24.766Z,18.27
2022-08-26T08:03:53.737Z,14.03
2022-08-26T08:06:23.082Z,12.67
2022-08-26T08:08:55.139Z,14.30
2022-08-26T08:11:22.412Z,12.87
2022-08-26T08:13:56.505Z,13.20
2022-08-26T08:16:28.489Z,12.90
2022-08-26T08:19:00.617Z,11.70
2022-08-26T08:21:27.864Z,11.37
2022-08-26T08:23:57.223Z,11.93
2022-08-26T08:26:25.615Z,12.53
2022-08-26T08:28:57.253Z,12.50
2022-08-26T08:34:16.718Z,20.27
2022-08-26T08:36:46.203Z,12.60
2022-08-26T08:39:13.244Z,13.13
2022-08-26T08:42:16.939Z,13.27
2022-08-26T08:44:51.967Z,11.93
2022-08-26T08:47:27.676Z,11.13
2022-08-26T08:50:00.048Z,13.53
2022-08-26T08:52:31.087Z,12.73
2022-08-26T08:54:58.194Z,13.17
2022-08-26T08:57:40.374Z,12.43
2022-08-26T09:00:17.625Z,12.77
2022-08-26T09:03:19.190Z,14.90
2022-08-26T09:05:51.307Z,13.03
2022-08-26T09:08:23.170Z,16.00
2022-08-26T09:10:59.521Z,15.63
2022-08-26T09:13:27.551Z,14.37
2022-08-26T09:16:10.301Z,14.30
2022-08-26T09:18:56.191Z,15.53
2022-08-26T09:21:25.287Z,16.73
2022-08-26T09:23:55.439Z,14.73
2022-08-26T09:26:30.615Z,15.20
2022-08-26T09:29:05.592Z,14.97
2022-08-26T09:31:35.753Z,15.20
2022-08-26T09:34:28.613Z,13.73
2022-08-26T09:36:58.090Z,14.00
2022-08-26T09:39:29.149Z,16.60
2022-08-26T09:42:04.866Z,15.47
2022-08-26T09:44:32.028Z,17.83
2022-08-26T09:47:03.958Z,15.30
2022-08-26T09:49:35.854Z,14.43
2022-08-26T09:52:17.400Z,16.77
2022-08-26T09:54:46.169Z,17.07
2022-08-26T09:57:27.018Z,17.20
2022-08-26T09:59:55.731Z,17.30
2022-08-26T10:02:22.672Z,20.13
2022-08-26T10:04:54.817Z,17.27
2022-08-26T10:07:45.036Z,17.27
2022-08-26T10:10:20.776Z,17.80
2022-08-26T10:13:13.067Z,17.60
2022-08-26T10:15:55.566Z,16.83
2022-08-26T10:18:37.048Z,14.40
2022-08-26T10:21:11.285Z,16.50
2022-08-26T10:23:51.317Z,16.13
2022-08-26T10:26:28.517Z,15.02
2022-08-26T10:29:10.073Z,16.05
2022-08-26T10:31:46.747Z,15.80
2022-08-26T10:34:16.988Z,15.63
2022-08-26T10:37:22.775Z,16.17
2022-08-26T10:40:00.538Z,16.33
2022-08-26T10:42:41.949Z,17.58
2022-08-26T10:45:15.267Z,17.55
2022-08-26T10:48:05.237Z,19.17
2022-08-26T10:50:38.780Z,17.98
2022-08-26T10:53:13.215Z,18.00
2022-08-26T10:55:42.844Z,14.90
2022-08-26T10:58:55.035Z,18.38
2022-08-26T11:01:43.496Z,17.83
2022-08-26T11:04:35.340Z,16.70
2022-08-26T11:07:46.190Z,16.30
2022-08-26T11:10:18.660Z,16.35
2022-08-26T11:12:45.396Z,19.70
2022-08-26T11:15:25.071Z,16.00
2022-08-26T11:17:51.755Z,18.33
2022-08-26T11:20:35.430Z,18.60
2022-08-26T11:23:21.222Z,15.55
2022-08-26T11:26:09.064Z,16.02
2022-08-26T11:28:50.257Z,15.52
2022-08-26T11:31:25.563Z,17.88
2022-08-26T11:34:00.635Z,16.13
2022-08-26T11:36:36.266Z,15.20
2022-08-26T11:39:25.554Z,16.77
2022-08-26T11:41:55.618Z,15.73
2022-08-26T11:44:37.249Z,17.40
2022-08-26T11:47:07.870Z,14.35
2022-08-26T11:49:38.769Z,16.80
2022-08-26T11:52:20.749Z,14.82
2022-08-26T11:55:11.492Z,16.67
2022-08-26T11:57:47.438Z,20.83
2022-08-26T12:00:27.303Z,18.65
2022-08-26T12:03:02.399Z,19.63
2022-08-26T12:05:38.316Z,17.85
2022-08-26T12:08:09.763Z,19.73
2022-08-26T12:10:37.090Z,18.13
2022-08-26T12:13:06.187Z,17.88
2022-08-26T12:15:34.767Z,18.58
2022-08-26T12:18:29.159Z,19.20
2022-08-26T12:20:59.277Z,17.20
2022-08-26T12:23:34.808Z,18.33
2022-08-26T12:26:10.587Z,17.63
2022-08-26T12:28:46.033Z,20.10
2022-08-26T12:31:24.863Z,18.23
2022-08-26T12:33:52.882Z,14.47
2022-08-26T12:36:28.642Z,12.98
2022-08-26T12:38:58.285Z,10.00
2022-08-26T12:41:59.661Z,10.27
2022-08-26T12:44:32.351Z,15.37
2022-08-26T12:47:42.187Z,12.02
2022-08-26T12:50:16.248Z,12.43
2022-08-26T12:53:15.409Z,12.03
2022-08-26T12:55:48.238Z,12.00
2022-08-26T12:58:31.607Z,12.90
2022-08-26T13:01:04.262Z,13.70
2022-08-26T13:03:34.079Z,13.33
2022-08-26T13:06:23.425Z,14.70
2022-08-26T13:08:52.843Z,16.83
2022-08-26T13:11:20.234Z,14.33
2022-08-26T13:13:51.889Z,15.50
2022-08-26T13:16:22.063Z,18.63
2022-08-26T13:18:51.414Z,18.00
2022-08-26T13:21:21.079Z,41.23
2022-08-26T13:23:48.869Z,74.13
2022-08-26T13:26:15.875Z,39.90
2022-08-26T13:28:42.852Z,30.07
2022-08-26T13:31:14.411Z,37.03
2022-08-26T13:33:42.939Z,44.57
2022-08-26T13:36:12.657Z,32.83
2022-08-26T13:38:39.313Z,36.33
2022-08-26T13:41:06.255Z,39.50
2022-08-26T13:43:33.067Z,35.53
2022-08-26T13:46:01.414Z,41.87
2022-08-26T13:48:28.194Z,38.67
2022-08-26T13:50:55.240Z,39.27
2022-08-26T13:53:22.059Z,46.40
2022-08-26T13:55:49.176Z,49.57
2022-08-26T13:58:16.389Z,49.00
2022-08-26T14:00:43.261Z,52.27
2022-08-26T14:03:13.388Z,55.87
2022-08-26T14:05:40.619Z,57.67
2022-08-26T14:08:08.053Z,61.30
2022-08-26T14:10:35.176Z,60.90
2022-08-26T14:13:02.083Z,54.23
2022-08-26T14:15:32.499Z,55.40
2022-08-26T14:18:01.873Z,56.07
2022-08-26T14:20:30.648Z,45.20
2022-08-26T14:23:20.802Z,43.93
2022-08-26T14:25:45.601Z,47.27
2022-08-26T14:28:12.382Z,46.83
2022-08-26T14:30:43.852Z,51.20
2022-08-26T14:33:13.232Z,51.17
2022-08-26T14:35:40.550Z,55.10
2022-08-26T14:38:16.477Z,52.70
2022-08-26T14:40:44.905Z,52.37
2022-08-26T14:43:16.244Z,53.07
2022-08-26T14:45:45.122Z,50.67
2022-08-26T14:48:11.866Z,62.27
2022-08-26T14:50:38.651Z,56.00
2022-08-26T14:53:24.065Z,56.40
2022-08-26T14:55:50.772Z,46.17
2022-08-26T14:58:17.451Z,56.40
2022-08-26T15:00:44.240Z,61.10
2022-08-26T15:03:11.166Z,60.27
2022-08-26T15:05:39.770Z,58.23
2022-08-26T15:08:14.917Z,64.13
2022-08-26T15:10:41.595Z,67.33
2022-08-26T15:13:08.274Z,63.97
2022-08-26T15:15:34.990Z,66.50
2022-08-26T15:18:01.931Z,54.43
2022-08-26T15:20:28.837Z,56.87
2022-08-26T15:22:55.616Z,56.23
2022-08-26T15:25:22.461Z,49.97
2022-08-26T15:27:49.142Z,45.83
2022-08-26T15:30:16.529Z,43.67
2022-08-26T15:32:43.415Z,45.20
2022-08-26T15:35:10.123Z,40.53
2022-08-26T15:37:36.965Z,36.63
2022-08-26T15:40:05.024Z,36.23
2022-08-26T15:42:31.871Z,36.83
2022-08-26T15:44:58.555Z,33.53
2022-08-26T15:47:25.269Z,30.40
2022-08-26T15:49:51.951Z,31.63
2022-08-26T15:52:19.654Z,37.07
2022-08-26T15:54:46.311Z,35.87
2022-08-26T15:57:15.339Z,35.40
2022-08-26T15:59:43.170Z,32.03
2022-08-26T16:02:10.515Z,30.80
2022-08-26T16:04:37.510Z,33.80
2022-08-26T16:07:04.399Z,31.30
2022-08-26T16:09:31.078Z,30.63
2022-08-26T16:12:00.119Z,30.77
2022-08-26T16:14:26.954Z,27.73
2022-08-26T16:16:53.647Z,27.53
2022-08-26T16:19:21.268Z,26.30
2022-08-26T16:21:49.104Z,26.03
2022-08-26T16:24:16.314Z,27.13
2022-08-26T16:26:44.230Z,26.83
2022-08-26T16:29:13.164Z,26.00
2022-08-26T16:31:40.193Z,26.20
2022-08-26T16:34:08.488Z,22.43
2022-08-26T16:36:37.529Z,24.30
2022-08-26T16:39:06.480Z,23.50
2022-08-26T16:41:33.865Z,23.47
2022-08-26T16:44:00.596Z,25.47
2022-08-26T16:46:28.592Z,25.63
2022-08-26T16:48:57.032Z,23.10
2022-08-26T16:51:27.015Z,22.17
2022-08-26T16:53:55.125Z,21.90
2022-08-26T16:56:30.571Z,20.37
2022-08-26T16:59:00.934Z,21.17
2022-08-26T17:01:28.394Z,21.60
2022-08-26T17:03:55.112Z,20.63
2022-08-26T17:06:21.913Z,20.97
2022-08-26T17:08:49.126Z,19.63
2022-08-26T17:11:16.140Z,21.40
2022-08-26T17:13:42.802Z,20.10
2022-08-26T17:16:11.767Z,22.90
2022-08-26T17:18:38.822Z,21.20
2022-08-26T17:21:13.292Z,21.30
2022-08-26T17:23:41.504Z,21.27
2022-08-26T17:26:09.041Z,21.00
2022-08-26T17:28:36.146Z,20.63
2022-08-26T17:31:03.426Z,24.80
2022-08-26T17:33:30.567Z,22.77
2022-08-26T17:35:57.952Z,22.37
2022-08-26T17:38:25.471Z,21.73
2022-08-26T17:40:52.192Z,23.20
2022-08-26T17:43:19.541Z,21.80
2022-08-26T17:45:46.237Z,20.00
2022-08-26T17:48:13.026Z,22.27
2022-08-26T17:50:41.197Z,20.80
2022-08-26T17:53:08.820Z,22.87
2022-08-26T17:55:41.742Z,23.40
2022-08-26T17:58:11.887Z,19.93
2022-08-26T18:00:45.048Z,18.87
2022-08-26T18:03:11.874Z,20.53
2022-08-26T18:05:38.648Z,19.53
2022-08-26T18:08:05.324Z,20.53
2022-08-26T18:10:32.028Z,21.17
2022-08-26T18:12:58.673Z,18.90
2022-08-26T18:15:25.438Z,23.10
2022-08-26T18:17:52.144Z,21.63
2022-08-26T18:20:19.646Z,23.43
2022-08-26T18:22:47.858Z,23.13
2022-08-26T18:25:15.542Z,21.93
2022-08-26T18:27:42.739Z,22.57
2022-08-26T18:30:21.534Z,22.10
2022-08-26T18:32:49.700Z,22.03
2022-08-26T18:35:16.792Z,22.23
2022-08-26T18:37:44.370Z,22.43
2022-08-26T18:40:13.441Z,20.53
2022-08-26T18:42:41.335Z,22.27
2022-08-26T18:45:09.333Z,24.07
2022-08-26T18:47:36.084Z,23.73
2022-08-26T18:50:03.839Z,21.80
2022-08-26T18:52:31.877Z,22.00
2022-08-26T18:54:59.395Z,22.23
2022-08-26T18:57:26.126Z,20.90
2022-08-26T18:59:52.785Z,21.47
2022-08-26T19:02:19.597Z,23.07
2022-08-26T19:04:46.530Z,21.53
2022-08-26T19:07:14.469Z,23.60
2022-08-26T19:09:41.215Z,19.77
2022-08-26T19:12:09.142Z,21.13
2022-08-26T19:14:36.277Z,19.83
2022-08-26T19:17:03.922Z,19.87
2022-08-26T19:19:31.680Z,21.20
2022-08-26T19:21:58.443Z,20.50
2022-08-26T19:24:27.443Z,19.50
2022-08-26T19:26:58.885Z,19.87
2022-08-26T19:29:31.999Z,19.60
2022-08-26T19:31:58.959Z,19.30
2022-08-26T19:34:25.721Z,18.27
2022-08-26T19:36:54.034Z,21.13
2022-08-26T19:39:21.545Z,18.57
2022-08-26T19:41:48.506Z,18.70
2022-08-26T19:44:36.140Z,19.47
2022-08-26T19:47:03.647Z,17.67
2022-08-26T19:49:31.443Z,22.27
2022-08-26T19:51:58.168Z,19.90
2022-08-26T19:54:25.603Z,17.97
2022-08-26T19:56:52.470Z,20.37
2022-08-26T19:59:19.214Z,16.07
2022-08-26T20:01:45.922Z,21.20
2022-08-26T20:04:27.519Z,21.87
2022-08-26T20:06:57.699Z,17.90
2022-08-26T20:09:31.091Z,16.00
2022-08-26T20:11:58.014Z,16.53
2022-08-26T20:14:26.393Z,17.10
2022-08-26T20:16:53.260Z,17.70
2022-08-26T20:19:38.509Z,19.57
2022-08-26T20:22:06.067Z,16.67
2022-08-26T20:24:33.224Z,16.77
2022-08-26T20:27:02.290Z,14.63
2022-08-26T20:29:32.174Z,17.50
2022-08-26T20:31:58.947Z,16.20
2022-08-26T20:34:26.231Z,17.03
2022-08-26T20:36:52.977Z,14.30
2022-08-26T20:39:23.534Z,19.00
2022-08-26T20:41:53.200Z,16.20
2022-08-26T20:44:19.869Z,16.17
2022-08-26T20:46:46.571Z,15.70
2022-08-26T20:49:13.449Z,15.20
2022-08-26T20:51:42.703Z,15.40
2022-08-26T20:54:11.895Z,19.40
2022-08-26T20:56:39.221Z,16.80
2022-08-26T20:59:07.223Z,16.83
2022-08-26T21:01:35.878Z,17.90
2022-08-26T21:04:05.206Z,16.50
2022-08-26T21:06:35.031Z,16.47
2022-08-26T21:09:03.662Z,15.10
2022-08-26T21:11:30.706Z,14.50
2022-08-26T21:14:15.715Z,17.90
2022-08-26T21:16:44.301Z,17.80
2022-08-26T21:19:13.738Z,19.13
2022-08-26T21:21:41.339Z,16.53
2022-08-26T21:24:08.770Z,14.00
2022-08-26T21:26:35.579Z,15.10
2022-08-26T21:29:02.980Z,14.10
2022-08-26T21:31:31.717Z,14.47
2022-08-26T21:33:59.014Z,14.17
2022-08-26T21:36:29.413Z,20.33
2022-08-26T21:38:57.664Z,15.40
2022-08-26T21:41:25.276Z,13.60
2022-08-26T21:43:55.013Z,15.67
2022-08-26T21:46:23.806Z,13.77
2022-08-26T21:48:58.037Z,14.23
2022-08-26T21:51:28.198Z,15.00
2022-08-26T21:53:56.906Z,18.00
2022-08-26T21:56:26.233Z,13.53
2022-08-26T21:58:54.911Z,12.87
2022-08-26T22:01:24.560Z,12.73
2022-08-26T22:03:52.550Z,13.83
2022-08-26T22:06:22.348Z,13.80
2022-08-26T22:08:49.221Z,14.50
2022-08-26T22:11:16.436Z,15.73
2022-08-26T22:13:43.960Z,15.70
2022-08-26T22:16:11.394Z,15.43
2022-08-26T22:18:38.966Z,14.30
2022-08-26T22:21:08.639Z,14.73
2022-08-26T22:23:36.735Z,14.10
2022-08-26T22:26:05.110Z,14.07
2022-08-26T22:28:31.822Z,13.77
2022-08-26T22:30:58.783Z,15.00
2022-08-26T22:33:25.795Z,12.87
2022-08-26T22:35:52.962Z,14.80
2022-08-26T22:38:21.002Z,12.47
2022-08-26T22:40:50.736Z,12.30
2022-08-26T22:43:18.842Z,12.53
2022-08-26T22:45:47.954Z,11.97
2022-08-26T22:48:18.302Z,11.93
2022-08-26T22:50:47.092Z,12.87
2022-08-26T22:53:15.477Z,13.80
2022-08-26T22:55:43.391Z,12.80
2022-08-26T22:58:11.578Z,11.70
2022-08-26T23:00:40.181Z,13.10
2022-08-26T23:03:07.446Z,12.53
2022-08-26T23:05:34.795Z,11.53
2022-08-26T23:08:01.915Z,12.90
2022-08-26T23:10:28.864Z,12.00
2022-08-26T23:12:55.580Z,11.80
2022-08-26T23:15:22.506Z,10.70
2022-08-26T23:17:51.366Z,15.37
2022-08-26T23:20:26.263Z,9.60
2022-08-26T23:22:53.463Z,9.80
2022-08-26T23:25:20.712Z,11.40
2022-08-26T23:27:47.641Z,14.30
2022-08-26T23:30:18.632Z,11.10
2022-08-26T23:32:45.491Z,11.17
2022-08-26T23:35:14.301Z,14.27
2022-08-26T23:37:44.093Z,11.80
2022-08-26T23:40:46.323Z,14.40
2022-08-26T23:43:13.009Z,10.00
2022-08-26T23:45:39.962Z,11.00
2022-08-26T23:48:07.833Z,10.53
2022-08-26T23:50:54.061Z,10.67
2022-08-26T23:53:22.585Z,11.13
2022-08-26T23:55:51.890Z,13.00
2022-08-26T23:58:20.657Z,10.47
